sensor_id;sensor_type;location;lat;lon;timestamp;noise_LAeq;noise_LA_min;noise_LA_max;noise_LA01;noise_LA95
79288;Laerm;68737;53.946;27.634;2023-06-22T00:00:26;45.117493;37.771782;61.177673;;
79288;Laerm;68737;53.946;27.634;2023-06-22T00:02:56;41.678604;38.350899;53.494316;;
79288;Laerm;68737;53.946;27.634;2023-06-22T00:05:26;39.635780;37.059631;44.197662;;
79288;Laerm;68737;53.946;27.634;2023-06-22T00:07:56;43.048767;37.058212;57.243446;;
79288;Laerm;68737;53.946;27.634;2023-06-22T00:10:26;40.186974;37.214821;51.987671;;
79288;Laerm;68737;53.946;27.634;2023-06-22T00:12:56;44.295799;37.016182;58.680191;;
79288;Laerm;68737;53.946;27.634;2023-06-22T00:15:27;44.976906;38.585838;60.500244;;
79288;Laerm;68737;53.946;27.634;2023-06-22T00:17:56;43.105568;37.361816;57.340958;;
79288;Laerm;68737;53.946;27.634;2023-06-22T00:20:26;40.623505;37.691566;50.590767;;
79288;Laerm;68737;53.946;27.634;2023-06-22T00:22:57;40.488609;37.291039;61.793438;;
79288;Laerm;68737;53.946;27.634;2023-06-22T00:25:26;40.825882;37.688545;48.026680;;
79288;Laerm;68737;53.946;27.634;2023-06-22T00:27:56;42.371925;36.915634;55.882416;;
79288;Laerm;68737;53.946;27.634;2023-06-22T00:30:26;39.608665;36.791336;43.731255;;
79288;Laerm;68737;53.946;27.634;2023-06-22T00:32:56;39.704811;36.883247;45.337265;;
79288;Laerm;68737;53.946;27.634;2023-06-22T00:35:27;39.984619;37.020554;55.524834;;
79288;Laerm;68737;53.946;27.634;2023-06-22T00:37:57;39.733391;36.723595;46.826256;;
79288;Laerm;68737;53.946;27.634;2023-06-22T00:42:57;40.117935;37.555313;44.196648;;
79288;Laerm;68737;53.946;27.634;2023-06-22T00:45:26;45.385056;37.435074;61.552586;;
79288;Laerm;68737;53.946;27.634;2023-06-22T00:47:57;44.677307;36.980911;55.759621;;
79288;Laerm;68737;53.946;27.634;2023-06-22T00:50:32;45.965157;38.728233;57.633667;;
79288;Laerm;68737;53.946;27.634;2023-06-22T00:52:57;42.933922;37.605438;56.053871;;
79288;Laerm;68737;53.946;27.634;2023-06-22T00:55:26;44.730133;37.515556;56.059525;;
79288;Laerm;68737;53.946;27.634;2023-06-22T00:57:56;47.687454;38.683914;61.803341;;
79288;Laerm;68737;53.946;27.634;2023-06-22T01:00:26;46.093925;37.216003;62.801895;;
79288;Laerm;68737;53.946;27.634;2023-06-22T01:02:56;39.662239;37.137932;59.328445;;
79288;Laerm;68737;53.946;27.634;2023-06-22T01:05:26;41.283684;37.013420;52.256149;;
79288;Laerm;68737;53.946;27.634;2023-06-22T01:17:56;41.376938;37.957283;55.837967;;
79288;Laerm;68737;53.946;27.634;2023-06-22T01:20:26;43.218361;38.362534;55.759407;;
79288;Laerm;68737;53.946;27.634;2023-06-22T01:25:28;44.921646;38.638329;57.571358;;
79288;Laerm;68737;53.946;27.634;2023-06-22T01:27:59;45.870674;38.725410;59.641933;;
79288;Laerm;68737;53.946;27.634;2023-06-22T01:30:27;46.046532;38.597153;59.566788;;
79288;Laerm;68737;53.946;27.634;2023-06-22T01:32:57;45.073616;38.875076;60.934616;;
79288;Laerm;68737;53.946;27.634;2023-06-22T01:35:26;46.651443;38.183014;58.722176;;
79288;Laerm;68737;53.946;27.634;2023-06-22T01:37:56;49.735657;39.709579;65.492149;;
79288;Laerm;68737;53.946;27.634;2023-06-22T01:40:26;50.721313;39.772835;63.209217;;
79288;Laerm;68737;53.946;27.634;2023-06-22T01:42:56;45.497177;39.463295;57.583832;;
79288;Laerm;68737;53.946;27.634;2023-06-22T01:45:27;47.943382;39.270668;63.485630;;
79288;Laerm;68737;53.946;27.634;2023-06-22T01:47:56;43.273804;38.543747;60.118450;;
79288;Laerm;68737;53.946;27.634;2023-06-22T01:50:26;42.600723;39.310173;55.774933;;
79288;Laerm;68737;53.946;27.634;2023-06-22T01:52:56;49.509163;39.230209;65.644402;;
79288;Laerm;68737;53.946;27.634;2023-06-22T01:55:26;48.349495;39.528839;66.278305;;
79288;Laerm;68737;53.946;27.634;2023-06-22T01:57:56;51.720955;40.454178;69.235001;;
79288;Laerm;68737;53.946;27.634;2023-06-22T02:00:27;46.739975;39.465294;58.828941;;
79288;Laerm;68737;53.946;27.634;2023-06-22T02:02:59;48.911568;40.184799;60.944332;;
79288;Laerm;68737;53.946;27.634;2023-06-22T02:05:28;44.071190;39.326912;55.218201;;
79288;Laerm;68737;53.946;27.634;2023-06-22T02:08:00;49.841736;39.569534;72.407875;;
79288;Laerm;68737;53.946;27.634;2023-06-22T02:10:26;50.316406;40.053947;65.731659;;
79288;Laerm;68737;53.946;27.634;2023-06-22T02:12:57;44.145004;39.608521;56.585274;;
79288;Laerm;68737;53.946;27.634;2023-06-22T02:15:26;49.016685;40.302811;64.971649;;
79288;Laerm;68737;53.946;27.634;2023-06-22T02:17:56;47.127663;40.623375;58.340889;;
79288;Laerm;68737;53.946;27.634;2023-06-22T02:20:26;49.265007;40.524490;72.047424;;
79288;Laerm;68737;53.946;27.634;2023-06-22T02:22:56;49.389801;40.734169;64.343262;;
79288;Laerm;68737;53.946;27.634;2023-06-22T02:25:26;49.586418;40.424988;59.187775;;
79288;Laerm;68737;53.946;27.634;2023-06-22T02:27:56;47.825104;40.447243;61.477058;;
79288;Laerm;68737;53.946;27.634;2023-06-22T02:30:26;44.771370;39.735901;55.851089;;
79288;Laerm;68737;53.946;27.634;2023-06-22T02:32:56;47.729149;39.978683;58.740822;;
79288;Laerm;68737;53.946;27.634;2023-06-22T02:40:26;48.161255;41.191765;59.194855;;
79288;Laerm;68737;53.946;27.634;2023-06-22T02:42:56;46.556236;40.900711;56.971588;;
79288;Laerm;68737;53.946;27.634;2023-06-22T02:45:26;46.928383;40.404816;59.785244;;
79288;Laerm;68737;53.946;27.634;2023-06-22T02:47:56;49.057007;41.349319;60.853596;;
79288;Laerm;68737;53.946;27.634;2023-06-22T02:50:26;47.761238;41.344727;57.914772;;
79288;Laerm;68737;53.946;27.634;2023-06-22T02:52:56;49.247078;41.042313;64.109177;;
79288;Laerm;68737;53.946;27.634;2023-06-22T02:55:26;51.112183;41.066177;62.919785;;
79288;Laerm;68737;53.946;27.634;2023-06-22T02:57:56;47.995888;41.583885;61.042538;;
79288;Laerm;68737;53.946;27.634;2023-06-22T03:00:26;48.291000;41.929222;60.130096;;
79288;Laerm;68737;53.946;27.634;2023-06-22T03:02:56;50.297981;42.734077;62.904610;;
79288;Laerm;68737;53.946;27.634;2023-06-22T03:05:26;47.756050;41.706215;64.092171;;
79288;Laerm;68737;53.946;27.634;2023-06-22T03:07:56;49.131271;41.269493;60.674595;;
79288;Laerm;68737;53.946;27.634;2023-06-22T03:10:26;50.122429;42.069252;60.254555;;
79288;Laerm;68737;53.946;27.634;2023-06-22T03:12:56;49.843086;42.235893;61.090385;;
79288;Laerm;68737;53.946;27.634;2023-06-22T03:15:26;52.111076;41.948318;66.306503;;
79288;Laerm;68737;53.946;27.634;2023-06-22T03:17:56;53.268188;42.384834;64.945786;;
79288;Laerm;68737;53.946;27.634;2023-06-22T03:20:26;48.979889;42.102570;61.123390;;
79288;Laerm;68737;53.946;27.634;2023-06-22T03:22:56;52.492439;42.747833;67.129822;;
79288;Laerm;68737;53.946;27.634;2023-06-22T03:25:26;50.538879;42.823624;58.486099;;
79288;Laerm;68737;53.946;27.634;2023-06-22T03:27:56;51.049561;42.734726;63.560951;;
79288;Laerm;68737;53.946;27.634;2023-06-22T03:30:26;49.788086;42.650772;60.489677;;
79288;Laerm;68737;53.946;27.634;2023-06-22T03:32:56;51.787697;42.911888;66.283089;;
79288;Laerm;68737;53.946;27.634;2023-06-22T03:35:26;52.444138;43.771278;64.604324;;
79288;Laerm;68737;53.946;27.634;2023-06-22T03:37:56;49.975746;43.270149;56.577782;;
79288;Laerm;68737;53.946;27.634;2023-06-22T03:40:26;50.998932;43.490028;60.921009;;
79288;Laerm;68737;53.946;27.634;2023-06-22T03:42:56;52.768799;42.705528;63.315163;;
79288;Laerm;68737;53.946;27.634;2023-06-22T03:45:26;49.986267;42.775566;60.630856;;
79288;Laerm;68737;53.946;27.634;2023-06-22T03:47:56;50.478722;42.666878;65.712357;;
79288;Laerm;68737;53.946;27.634;2023-06-22T03:50:27;49.283791;41.732742;59.525368;;
79288;Laerm;68737;53.946;27.634;2023-06-22T03:52:56;51.145454;42.307678;59.334984;;
79288;Laerm;68737;53.946;27.634;2023-06-22T03:55:26;54.400246;44.022278;65.087982;;
79288;Laerm;68737;53.946;27.634;2023-06-22T03:57:56;51.273148;44.042091;59.978233;;
79288;Laerm;68737;53.946;27.634;2023-06-22T04:00:26;56.608559;45.780556;68.483513;;
79288;Laerm;68737;53.946;27.634;2023-06-22T04:02:56;52.343040;44.245377;64.738930;;
79288;Laerm;68737;53.946;27.634;2023-06-22T04:05:26;51.159622;42.576912;62.299057;;
79288;Laerm;68737;53.946;27.634;2023-06-22T04:07:56;53.938553;43.613518;65.966034;;
79288;Laerm;68737;53.946;27.634;2023-06-22T04:10:26;56.307159;43.887283;70.050888;;
79288;Laerm;68737;53.946;27.634;2023-06-22T04:12:56;52.038879;42.835663;63.372776;;
79288;Laerm;68737;53.946;27.634;2023-06-22T04:15:26;53.571121;44.595573;61.529636;;
79288;Laerm;68737;53.946;27.634;2023-06-22T04:17:56;54.538193;43.433922;63.529011;;
79288;Laerm;68737;53.946;27.634;2023-06-22T04:20:26;56.784073;44.815094;70.399765;;
79288;Laerm;68737;53.946;27.634;2023-06-22T04:22:56;56.303452;43.766182;78.886658;;
79288;Laerm;68737;53.946;27.634;2023-06-22T04:25:26;53.776939;42.956772;64.031631;;
79288;Laerm;68737;53.946;27.634;2023-06-22T04:27:56;52.593163;41.593781;67.650581;;
79288;Laerm;68737;53.946;27.634;2023-06-22T04:30:26;54.749763;44.080467;68.982056;;
79288;Laerm;68737;53.946;27.634;2023-06-22T04:32:56;56.687607;47.555687;65.468735;;
79288;Laerm;68737;53.946;27.634;2023-06-22T04:35:26;54.659668;43.140717;73.745369;;
79288;Laerm;68737;53.946;27.634;2023-06-22T04:37:57;55.384682;46.501213;67.448524;;
79288;Laerm;68737;53.946;27.634;2023-06-22T04:40:26;53.409195;44.066544;61.288502;;
79288;Laerm;68737;53.946;27.634;2023-06-22T04:42:56;55.591194;46.927414;71.005981;;
79288;Laerm;68737;53.946;27.634;2023-06-22T04:45:26;56.006317;48.491577;64.372726;;
79288;Laerm;68737;53.946;27.634;2023-06-22T04:47:56;56.450417;46.047279;68.923897;;
79288;Laerm;68737;53.946;27.634;2023-06-22T04:50:26;56.891571;47.015045;67.881546;;
79288;Laerm;68737;53.946;27.634;2023-06-22T04:52:56;54.652504;43.521042;63.740170;;
79288;Laerm;68737;53.946;27.634;2023-06-22T04:55:26;56.857666;47.854996;68.620071;;
79288;Laerm;68737;53.946;27.634;2023-06-22T04:57:56;55.122566;46.856941;61.657902;;
79288;Laerm;68737;53.946;27.634;2023-06-22T05:00:26;57.255608;46.475113;72.649216;;
79288;Laerm;68737;53.946;27.634;2023-06-22T05:02:56;55.124771;46.056725;64.463181;;
79288;Laerm;68737;53.946;27.634;2023-06-22T05:05:26;55.100792;46.771469;66.571541;;
79288;Laerm;68737;53.946;27.634;2023-06-22T05:07:56;55.996666;48.044258;63.912487;;
79288;Laerm;68737;53.946;27.634;2023-06-22T05:10:26;55.152901;44.789932;64.686523;;
79288;Laerm;68737;53.946;27.634;2023-06-22T05:12:56;55.970917;46.389427;64.530899;;
79288;Laerm;68737;53.946;27.634;2023-06-22T05:15:26;55.025742;45.105316;66.107697;;
79288;Laerm;68737;53.946;27.634;2023-06-22T05:17:56;55.595253;45.851601;64.090805;;
79288;Laerm;68737;53.946;27.634;2023-06-22T05:20:26;54.645767;45.680977;63.179562;;
79288;Laerm;68737;53.946;27.634;2023-06-22T05:22:56;56.571831;46.024796;69.581711;;
79288;Laerm;68737;53.946;27.634;2023-06-22T05:25:26;55.010170;44.923347;67.112061;;
79288;Laerm;68737;53.946;27.634;2023-06-22T05:27:56;55.358009;44.934639;65.231049;;
79288;Laerm;68737;53.946;27.634;2023-06-22T05:30:26;54.180275;45.430557;63.079830;;
79288;Laerm;68737;53.946;27.634;2023-06-22T05:32:56;58.605827;44.446426;71.789940;;
79288;Laerm;68737;53.946;27.634;2023-06-22T05:35:26;57.406166;48.360535;67.042252;;
79288;Laerm;68737;53.946;27.634;2023-06-22T05:37:56;56.727432;45.673584;68.651199;;
79288;Laerm;68737;53.946;27.634;2023-06-22T05:40:26;54.547997;44.674896;61.823940;;
79288;Laerm;68737;53.946;27.634;2023-06-22T05:42:56;55.411255;45.591965;64.050156;;
79288;Laerm;68737;53.946;27.634;2023-06-22T05:45:26;54.359261;47.809196;60.268326;;
79288;Laerm;68737;53.946;27.634;2023-06-22T05:47:56;59.358185;44.975601;72.257401;;
79288;Laerm;68737;53.946;27.634;2023-06-22T05:50:26;56.038460;44.063721;65.315369;;
79288;Laerm;68737;53.946;27.634;2023-06-22T05:52:56;56.688705;46.223351;66.545563;;
79288;Laerm;68737;53.946;27.634;2023-06-22T05:55:26;55.421257;44.148865;62.666985;;
79288;Laerm;68737;53.946;27.634;2023-06-22T05:57:56;55.438538;43.213936;67.199158;;
79288;Laerm;68737;53.946;27.634;2023-06-22T06:00:26;55.730690;44.345871;71.588821;;
79288;Laerm;68737;53.946;27.634;2023-06-22T06:02:56;53.971489;44.636742;61.487961;;
79288;Laerm;68737;53.946;27.634;2023-06-22T06:05:26;55.354752;43.768204;65.816513;;
79288;Laerm;68737;53.946;27.634;2023-06-22T06:07:56;54.409920;43.166122;60.743019;;
79288;Laerm;68737;53.946;27.634;2023-06-22T06:10:26;56.014801;45.685028;65.061920;;
79288;Laerm;68737;53.946;27.634;2023-06-22T06:12:56;57.587700;45.835556;66.998260;;
79288;Laerm;68737;53.946;27.634;2023-06-22T06:15:26;52.770889;44.370705;62.758675;;
79288;Laerm;68737;53.946;27.634;2023-06-22T06:17:56;54.063606;43.450523;63.446419;;
79288;Laerm;68737;53.946;27.634;2023-06-22T06:20:26;54.812485;46.248962;64.635529;;
79288;Laerm;68737;53.946;27.634;2023-06-22T06:22:56;58.959122;48.746452;72.086433;;
79288;Laerm;68737;53.946;27.634;2023-06-22T06:25:26;52.582932;43.896301;62.793530;;
79288;Laerm;68737;53.946;27.634;2023-06-22T06:27:56;53.748413;45.298447;60.255535;;
79288;Laerm;68737;53.946;27.634;2023-06-22T06:30:26;54.871056;45.068024;62.705528;;
79288;Laerm;68737;53.946;27.634;2023-06-22T06:32:56;56.072647;44.537827;68.284088;;
79288;Laerm;68737;53.946;27.634;2023-06-22T06:35:26;55.844582;45.187195;68.393799;;
79288;Laerm;68737;53.946;27.634;2023-06-22T06:37:56;58.054840;47.915779;67.872284;;
79288;Laerm;68737;53.946;27.634;2023-06-22T06:40:26;54.656120;46.615082;61.857128;;
79288;Laerm;68737;53.946;27.634;2023-06-22T06:42:56;56.266991;49.626427;62.865612;;
79288;Laerm;68737;53.946;27.634;2023-06-22T06:45:26;55.271431;48.724464;66.650589;;
79288;Laerm;68737;53.946;27.634;2023-06-22T06:47:56;58.739517;50.065575;71.330200;;
79288;Laerm;68737;53.946;27.634;2023-06-22T06:50:27;55.641785;47.230515;65.662582;;
79288;Laerm;68737;53.946;27.634;2023-06-22T06:52:56;59.773766;49.426308;70.936935;;
79288;Laerm;68737;53.946;27.634;2023-06-22T06:55:26;56.747787;50.921013;62.470402;;
79288;Laerm;68737;53.946;27.634;2023-06-22T06:57:56;56.524368;50.591026;62.738998;;
79288;Laerm;68737;53.946;27.634;2023-06-22T07:00:26;55.695488;49.907295;60.287521;;
79288;Laerm;68737;53.946;27.634;2023-06-22T07:02:56;58.549133;52.395271;64.893555;;
79288;Laerm;68737;53.946;27.634;2023-06-22T07:05:26;57.541443;50.996300;69.144073;;
79288;Laerm;68737;53.946;27.634;2023-06-22T07:07:56;60.762379;52.190926;71.538162;;
79288;Laerm;68737;53.946;27.634;2023-06-22T07:10:26;54.192719;45.901543;69.197784;;
79288;Laerm;68737;53.946;27.634;2023-06-22T07:12:56;55.425850;44.669930;69.789474;;
79288;Laerm;68737;53.946;27.634;2023-06-22T07:15:26;55.993813;45.213326;68.992378;;
79288;Laerm;68737;53.946;27.634;2023-06-22T07:17:56;55.012314;45.391884;69.501984;;
79288;Laerm;68737;53.946;27.634;2023-06-22T07:20:27;55.194252;47.849380;67.079079;;
79288;Laerm;68737;53.946;27.634;2023-06-22T07:22:56;57.499229;50.578377;74.991974;;
79288;Laerm;68737;53.946;27.634;2023-06-22T07:25:26;57.623451;50.918175;78.952866;;
79288;Laerm;68737;53.946;27.634;2023-06-22T07:27:57;57.922180;52.122185;68.331169;;
79288;Laerm;68737;53.946;27.634;2023-06-22T07:30:26;55.484985;46.872307;61.418308;;
79288;Laerm;68737;53.946;27.634;2023-06-22T07:32:56;59.212662;51.238380;70.311394;;
79288;Laerm;68737;53.946;27.634;2023-06-22T07:35:26;56.400459;48.394676;65.250710;;
79288;Laerm;68737;53.946;27.634;2023-06-22T07:37:56;54.320656;45.750366;65.969086;;
79288;Laerm;68737;53.946;27.634;2023-06-22T07:40:26;53.073463;45.096664;61.568119;;
79288;Laerm;68737;53.946;27.634;2023-06-22T07:42:56;56.993736;46.506134;67.486382;;
79288;Laerm;68737;53.946;27.634;2023-06-22T07:45:26;54.334396;45.599190;66.448448;;
79288;Laerm;68737;53.946;27.634;2023-06-22T07:47:56;56.273293;45.007843;70.796387;;
79288;Laerm;68737;53.946;27.634;2023-06-22T07:50:26;57.780754;47.946838;74.510422;;
79288;Laerm;68737;53.946;27.634;2023-06-22T07:52:56;55.252151;47.963135;64.517395;;
79288;Laerm;68737;53.946;27.634;2023-06-22T07:55:26;55.113190;46.151031;67.163475;;
79288;Laerm;68737;53.946;27.634;2023-06-22T07:57:56;57.330345;50.184364;67.319077;;
79288;Laerm;68737;53.946;27.634;2023-06-22T08:00:26;55.584457;48.791786;64.093994;;
79288;Laerm;68737;53.946;27.634;2023-06-22T08:02:56;57.444000;51.264923;63.849827;;
79288;Laerm;68737;53.946;27.634;2023-06-22T08:05:26;56.600121;50.006470;63.765923;;
79288;Laerm;68737;53.946;27.634;2023-06-22T08:07:56;58.157471;50.657936;66.600388;;
79288;Laerm;68737;53.946;27.634;2023-06-22T08:10:26;61.745373;53.324493;70.744675;;
79288;Laerm;68737;53.946;27.634;2023-06-22T08:12:56;59.912075;54.836540;67.116486;;
79288;Laerm;68737;53.946;27.634;2023-06-22T08:15:26;62.782951;50.929871;87.530136;;
79288;Laerm;68737;53.946;27.634;2023-06-22T08:17:56;57.106377;50.781586;68.384201;;
79288;Laerm;68737;53.946;27.634;2023-06-22T08:20:26;56.604294;47.121384;68.926041;;
79288;Laerm;68737;53.946;27.634;2023-06-22T08:22:56;56.204338;45.412674;65.650589;;
79288;Laerm;68737;53.946;27.634;2023-06-22T08:25:26;54.088623;46.693977;64.094299;;
79288;Laerm;68737;53.946;27.634;2023-06-22T08:27:56;56.687836;47.953156;66.972443;;
79288;Laerm;68737;53.946;27.634;2023-06-22T08:30:26;54.742172;47.246376;62.458309;;
79288;Laerm;68737;53.946;27.634;2023-06-22T08:32:56;55.174423;46.855621;65.379990;;
79288;Laerm;68737;53.946;27.634;2023-06-22T08:35:26;56.073051;49.086403;68.223663;;
79288;Laerm;68737;53.946;27.634;2023-06-22T08:37:56;57.701279;49.199883;67.860306;;
79288;Laerm;68737;53.946;27.634;2023-06-22T08:40:26;61.105686;53.621208;70.496674;;
79288;Laerm;68737;53.946;27.634;2023-06-22T08:42:56;57.947578;51.112724;68.424057;;
79288;Laerm;68737;53.946;27.634;2023-06-22T08:45:26;59.068645;53.643204;70.366180;;
79288;Laerm;68737;53.946;27.634;2023-06-22T08:47:56;57.728966;46.259995;64.259277;;
79288;Laerm;68737;53.946;27.634;2023-06-22T08:50:26;64.152771;54.043694;78.678070;;
79288;Laerm;68737;53.946;27.634;2023-06-22T08:52:56;65.139214;58.063477;77.449471;;
79288;Laerm;68737;53.946;27.634;2023-06-22T08:55:26;64.769539;49.379791;72.553413;;
79288;Laerm;68737;53.946;27.634;2023-06-22T08:57:56;66.579918;55.076889;78.379349;;
79288;Laerm;68737;53.946;27.634;2023-06-22T09:00:26;65.014999;55.100410;71.885513;;
79288;Laerm;68737;53.946;27.634;2023-06-22T09:02:56;63.916599;56.949257;71.609657;;
79288;Laerm;68737;53.946;27.634;2023-06-22T09:05:26;60.457268;50.449120;67.060669;;
79288;Laerm;68737;53.946;27.634;2023-06-22T09:07:56;58.667755;52.628754;69.653351;;
79288;Laerm;68737;53.946;27.634;2023-06-22T09:10:26;59.410370;44.826996;75.837357;;
79288;Laerm;68737;53.946;27.634;2023-06-22T09:12:56;60.449780;45.059319;72.405411;;
79288;Laerm;68737;53.946;27.634;2023-06-22T09:15:30;62.178734;53.780968;72.103981;;
79288;Laerm;68737;53.946;27.634;2023-06-22T09:17:56;61.181858;48.378876;68.247711;;
79288;Laerm;68737;53.946;27.634;2023-06-22T09:20:26;61.543449;50.937584;70.885895;;
79288;Laerm;68737;53.946;27.634;2023-06-22T09:22:56;62.227478;51.743492;73.337135;;
79288;Laerm;68737;53.946;27.634;2023-06-22T09:25:26;63.206287;56.172523;68.938034;;
79288;Laerm;68737;53.946;27.634;2023-06-22T09:27:56;53.971062;43.967545;69.282059;;
79288;Laerm;68737;53.946;27.634;2023-06-22T09:30:26;53.491531;44.147095;61.885502;;
79288;Laerm;68737;53.946;27.634;2023-06-22T09:32:56;55.765404;46.330490;69.315849;;
79288;Laerm;68737;53.946;27.634;2023-06-22T09:35:26;55.390457;48.821678;63.412025;;
79288;Laerm;68737;53.946;27.634;2023-06-22T09:37:56;54.632156;46.984985;61.716213;;
79288;Laerm;68737;53.946;27.634;2023-06-22T09:40:26;56.086929;48.664192;68.100479;;
79288;Laerm;68737;53.946;27.634;2023-06-22T09:42:56;58.417862;50.779579;65.250504;;
79288;Laerm;68737;53.946;27.634;2023-06-22T09:45:26;61.369278;49.499245;69.979980;;
79288;Laerm;68737;53.946;27.634;2023-06-22T09:47:56;63.100113;52.820564;70.021057;;
79288;Laerm;68737;53.946;27.634;2023-06-22T09:50:26;65.251656;59.749119;77.259995;;
79288;Laerm;68737;53.946;27.634;2023-06-22T09:52:56;62.327419;56.858078;68.194580;;
79288;Laerm;68737;53.946;27.634;2023-06-22T09:55:26;62.502686;46.253403;69.614983;;
79288;Laerm;68737;53.946;27.634;2023-06-22T09:57:56;61.281910;50.829399;68.409973;;
79288;Laerm;68737;53.946;27.634;2023-06-22T10:00:26;62.586369;53.208900;68.784691;;
79288;Laerm;68737;53.946;27.634;2023-06-22T10:02:56;60.904861;52.409851;68.841721;;
79288;Laerm;68737;53.946;27.634;2023-06-22T10:05:26;61.298988;46.944237;68.430435;;
79288;Laerm;68737;53.946;27.634;2023-06-22T10:07:56;61.737320;55.379662;67.572220;;
79288;Laerm;68737;53.946;27.634;2023-06-22T10:10:26;58.108780;51.870865;63.794968;;
79288;Laerm;68737;53.946;27.634;2023-06-22T10:12:56;60.259964;54.039001;66.214989;;
79288;Laerm;68737;53.946;27.634;2023-06-22T10:15:26;59.404366;50.380074;65.720512;;
79288;Laerm;68737;53.946;27.634;2023-06-22T10:17:56;60.366974;54.439484;67.336990;;
79288;Laerm;68737;53.946;27.634;2023-06-22T10:20:26;56.623055;50.406517;66.875374;;
79288;Laerm;68737;53.946;27.634;2023-06-22T10:22:56;57.781868;50.673294;67.085526;;
79288;Laerm;68737;53.946;27.634;2023-06-22T10:25:26;56.744560;45.238930;68.721001;;
79288;Laerm;68737;53.946;27.634;2023-06-22T10:27:56;54.722305;45.847801;77.319778;;
79288;Laerm;68737;53.946;27.634;2023-06-22T10:30:26;56.987625;45.588776;70.745110;;
79288;Laerm;68737;53.946;27.634;2023-06-22T10:32:56;57.412979;47.468231;78.411888;;
79288;Laerm;68737;53.946;27.634;2023-06-22T10:35:26;55.739021;44.905434;66.530991;;
79288;Laerm;68737;53.946;27.634;2023-06-22T10:37:56;55.479416;47.035599;67.536682;;
79288;Laerm;68737;53.946;27.634;2023-06-22T10:40:26;55.942360;46.154472;63.232620;;
79288;Laerm;68737;53.946;27.634;2023-06-22T10:42:56;55.446625;46.640541;69.148987;;
79288;Laerm;68737;53.946;27.634;2023-06-22T10:45:26;55.600037;48.800659;68.167114;;
79288;Laerm;68737;53.946;27.634;2023-06-22T10:47:56;57.073280;52.036293;63.816547;;
79288;Laerm;68737;53.946;27.634;2023-06-22T10:50:26;56.944824;50.302818;62.627888;;
79288;Laerm;68737;53.946;27.634;2023-06-22T10:52:56;57.729752;51.395752;64.825333;;
79288;Laerm;68737;53.946;27.634;2023-06-22T10:55:26;57.128838;51.859734;65.257004;;
79288;Laerm;68737;53.946;27.634;2023-06-22T10:57:56;55.852219;50.303299;67.090637;;
79288;Laerm;68737;53.946;27.634;2023-06-22T11:00:26;56.407181;48.211090;65.429054;;
79288;Laerm;68737;53.946;27.634;2023-06-22T11:02:56;61.912331;47.871956;82.213470;;
79288;Laerm;68737;53.946;27.634;2023-06-22T11:05:26;58.445374;50.054886;70.413635;;
79288;Laerm;68737;53.946;27.634;2023-06-22T11:07:56;56.918823;49.778290;68.864090;;
79288;Laerm;68737;53.946;27.634;2023-06-22T11:10:26;57.213165;49.633690;65.706108;;
79288;Laerm;68737;53.946;27.634;2023-06-22T11:12:56;57.009232;49.819504;74.003212;;
79288;Laerm;68737;53.946;27.634;2023-06-22T11:15:26;65.848282;47.808914;91.253464;;
79288;Laerm;68737;53.946;27.634;2023-06-22T11:17:56;62.166855;48.794891;89.838287;;
79288;Laerm;68737;53.946;27.634;2023-06-22T11:20:26;54.819183;47.867935;64.521332;;
79288;Laerm;68737;53.946;27.634;2023-06-22T11:22:56;55.831558;48.810303;66.715508;;
79288;Laerm;68737;53.946;27.634;2023-06-22T11:25:26;57.335762;49.455383;72.958527;;
79288;Laerm;68737;53.946;27.634;2023-06-22T11:27:56;55.713860;48.150536;63.719746;;
79288;Laerm;68737;53.946;27.634;2023-06-22T11:30:26;58.056465;50.430656;67.794693;;
79288;Laerm;68737;53.946;27.634;2023-06-22T11:35:26;54.648132;48.592018;71.992447;;
79288;Laerm;68737;53.946;27.634;2023-06-22T11:37:56;55.329445;48.767609;65.473160;;
79288;Laerm;68737;53.946;27.634;2023-06-22T11:40:26;55.164673;48.577148;68.087952;;
79288;Laerm;68737;53.946;27.634;2023-06-22T11:42:56;53.516472;43.836594;62.952724;;
79288;Laerm;68737;53.946;27.634;2023-06-22T11:45:26;57.444984;49.898834;66.659721;;
79288;Laerm;68737;53.946;27.634;2023-06-22T11:47:56;58.007423;49.589951;75.395401;;
79288;Laerm;68737;53.946;27.634;2023-06-22T11:50:26;56.753960;50.429626;63.766243;;
79288;Laerm;68737;53.946;27.634;2023-06-22T11:52:56;58.194420;52.905251;62.459114;;
79288;Laerm;68737;53.946;27.634;2023-06-22T11:55:26;57.460434;51.074036;68.117340;;
79288;Laerm;68737;53.946;27.634;2023-06-22T11:57:56;67.962784;53.632004;76.826630;;
79288;Laerm;68737;53.946;27.634;2023-06-22T12:00:26;64.282272;52.175751;74.008736;;
79288;Laerm;68737;53.946;27.634;2023-06-22T12:02:56;56.349304;49.677734;65.212051;;
79288;Laerm;68737;53.946;27.634;2023-06-22T12:05:26;60.760330;50.478157;74.940140;;
79288;Laerm;68737;53.946;27.634;2023-06-22T12:07:56;57.215569;49.065132;71.065308;;
79288;Laerm;68737;53.946;27.634;2023-06-22T12:10:26;59.915401;50.771721;75.041267;;